Pagrindinis puslapis
METAR-TAF:

METAR-TAF

Oro uostai :

Lima, Peru

platuma: 12-00S, ilguma: 077-07W, Aukštis: 12 m

Dabartinis oras

Ataskaita buvo paskelbta 47 minutes, ne 23:00 UTC
Vėjas 8 kt iš Pietų
Temperatūra 16°C
Drėgmė 77%
Slėgis 1012 hPa
Matomumas 10 km arba daugiau
Su prošvaistėmis ne aukštis 1200 ft

METAR: SPJC 232300Z 18008KT 9999 BKN012 16/12 Q1012 NOSIG RMK PP000

Laikas: 18:47 (23:47 UTC)

Prognozė

Ataskaita buvo paskelbta 47 minutes, ne 23:00 UTC
Prognozė galioja nuo 24 metu 00 UTC su 24 metu 24 UTC
Vėjas 8 kt iš Pietų
Matomumas: 7000 m
Apsiniaukę ne aukštis 1200 ft
Tapsmas
nuo 24 metu 04 UTC su 24 metu 06 UTC
Apsiniaukę ne aukštis 800 ft
Tapsmas
nuo 24 metu 10 UTC su 24 metu 12 UTC
Matomumas: 4500 m
rūkana
Tapsmas
nuo 24 metu 14 UTC su 24 metu 16 UTC
Matomumas: 7000 m
Apsiniaukę ne aukštis 1200 ft
Tapsmas
nuo 24 metu 19 UTC su 24 metu 21 UTC
Su prošvaistėmis ne aukštis 1600 ft

TAF: SPJC 232300Z 2400/2424 18008KT 7000 OVC012 TX18/2419Z TN14/2411Z BECMG 2404/2406 OVC008 BECMG 2410/2412 4500 BR BECMG 2414/2416 7000 NSW OVC012 BECMG 2419/2421 BKN016

Orai ataskaitas ir orų prognozės (METAR, TAF).

turimą stotys yra geltonos ir raudonos taškus žemėlapyje.

Perkelti pele per norėdami pamatyti stoties vardą.

Tada spustelėkite, norėdami matyti oro stebėjimo ir prognozės.

Norėdami pakeisti žemėlapį: spustelėkite ant žalios mygtukų su juodo kryžiaus žemyn,; žalią mygtuką su brūkšneliu, jei norite nutolinti; arba žalių rodyklių gretimoms žemėlapius.


METAR-TAF: